createdAt,value
2023-01-13T00:01:36.104Z,69.10
2023-01-13T00:04:05.969Z,69.10
2023-01-13T00:06:34.937Z,69.20
2023-01-13T00:09:04.315Z,69.40
2023-01-13T00:11:33.704Z,69.50
2023-01-13T00:14:02.777Z,69.10
2023-01-13T00:16:31.787Z,68.60
2023-01-13T00:19:02.096Z,69.00
2023-01-13T00:21:31.461Z,69.10
2023-01-13T00:24:00.644Z,69.10
2023-01-13T00:26:33.600Z,69.30
2023-01-13T00:29:04.802Z,69.40
2023-01-13T00:31:33.940Z,69.40
2023-01-13T00:34:04.341Z,69.60
2023-01-13T00:36:33.736Z,69.90
2023-01-13T00:39:03.255Z,70.10
2023-01-13T00:41:52.621Z,70.20
2023-01-13T00:44:20.658Z,70.20
2023-01-13T00:46:49.732Z,70.40
2023-01-13T00:49:19.991Z,70.60
2023-01-13T00:51:48.968Z,70.70
2023-01-13T00:54:18.523Z,70.70
2023-01-13T00:56:47.300Z,70.90
2023-01-13T00:59:16.345Z,70.90
2023-01-13T01:01:45.832Z,71.10
2023-01-13T01:04:15.106Z,71.20
2023-01-13T01:06:45.699Z,71.40
2023-01-13T01:09:15.913Z,71.50
2023-01-13T01:11:51.306Z,71.60
2023-01-13T01:14:20.263Z,71.60
2023-01-13T01:16:49.418Z,71.70
2023-01-13T01:19:18.737Z,71.80
2023-01-13T01:21:51.246Z,71.90
2023-01-13T01:24:20.561Z,72.00
2023-01-13T01:26:49.474Z,72.10
2023-01-13T01:29:24.063Z,72.20
2023-01-13T01:31:57.999Z,72.40
2023-01-13T01:34:26.952Z,72.60
2023-01-13T01:36:57.336Z,72.80
2023-01-13T01:39:26.148Z,72.90
2023-01-13T01:42:12.541Z,72.90
2023-01-13T01:45:14.727Z,73.00
2023-01-13T01:47:44.413Z,73.20
2023-01-13T01:50:13.789Z,73.20
2023-01-13T01:52:47.719Z,73.40
2023-01-13T01:55:20.083Z,73.40
2023-01-13T01:57:52.838Z,73.40
2023-01-13T02:00:22.640Z,73.60
2023-01-13T02:03:00.053Z,73.60
2023-01-13T02:05:29.358Z,73.60
2023-01-13T02:08:02.581Z,73.50
2023-01-13T02:10:32.180Z,73.60
2023-01-13T02:13:03.225Z,73.40
2023-01-13T02:15:40.158Z,73.30
2023-01-13T02:18:32.664Z,73.30
2023-01-13T02:21:32.223Z,73.30
2023-01-13T02:24:53.870Z,73.40
2023-01-13T02:28:03.433Z,73.30
2023-01-13T02:31:03.165Z,74.10
2023-01-13T02:33:49.551Z,73.30
2023-01-13T02:36:32.910Z,73.40
2023-01-13T02:39:06.675Z,73.30
2023-01-13T02:41:59.537Z,73.20
2023-01-13T02:44:37.149Z,73.30
2023-01-13T02:47:11.819Z,73.30
2023-01-13T02:49:45.741Z,73.30
2023-01-13T02:52:20.614Z,73.30
2023-01-13T02:54:55.184Z,73.30
2023-01-13T02:57:26.987Z,73.20
2023-01-13T02:59:56.886Z,73.10
2023-01-13T03:02:27.414Z,72.90
2023-01-13T03:04:58.547Z,72.80
2023-01-13T03:07:58.307Z,72.80
2023-01-13T03:10:35.286Z,72.70
2023-01-13T03:13:15.997Z,72.60
2023-01-13T03:15:54.883Z,72.30
2023-01-13T03:18:41.678Z,72.00
2023-01-13T03:21:17.871Z,71.90
2023-01-13T03:23:51.915Z,71.90
2023-01-13T03:26:29.754Z,71.80
2023-01-13T03:29:07.526Z,71.70
2023-01-13T03:31:40.679Z,71.80
2023-01-13T03:34:15.433Z,72.00
2023-01-13T03:36:47.356Z,72.00
2023-01-13T03:39:25.723Z,72.10
2023-01-13T03:41:59.927Z,72.30
2023-01-13T03:44:34.019Z,72.30
2023-01-13T03:47:10.124Z,72.40
2023-01-13T03:49:45.991Z,72.50
2023-01-13T03:52:19.887Z,72.60
2023-01-13T03:54:52.923Z,72.50
2023-01-13T03:57:25.560Z,72.80
2023-01-13T03:59:59.547Z,72.90
2023-01-13T04:02:37.593Z,73.20
2023-01-13T04:05:10.736Z,73.50
2023-01-13T04:07:51.429Z,73.50
2023-01-13T04:10:27.542Z,73.70
2023-01-13T04:13:03.556Z,73.80
2023-01-13T04:15:35.922Z,73.90
2023-01-13T04:18:13.389Z,74.10
2023-01-13T04:20:45.435Z,74.40
2023-01-13T04:23:14.968Z,74.30
2023-01-13T04:25:45.563Z,74.60
2023-01-13T04:28:15.842Z,74.60
2023-01-13T04:30:46.215Z,74.80
2023-01-13T04:33:16.797Z,75.10
2023-01-13T04:35:48.700Z,75.30
2023-01-13T04:38:19.764Z,75.50
2023-01-13T04:40:49.023Z,75.60
2023-01-13T04:43:18.275Z,75.70
2023-01-13T04:45:47.593Z,75.70
2023-01-13T04:48:16.597Z,75.70
2023-01-13T04:50:46.951Z,75.70
2023-01-13T04:53:16.264Z,75.80
2023-01-13T04:55:47.298Z,75.70
2023-01-13T04:58:16.547Z,75.90
2023-01-13T05:00:45.710Z,75.80
2023-01-13T05:03:14.850Z,75.80
2023-01-13T05:05:44.224Z,76.00
2023-01-13T05:08:14.616Z,75.70
2023-01-13T05:10:43.729Z,75.60
2023-01-13T05:13:30.182Z,75.60
2023-01-13T05:16:19.370Z,75.60
2023-01-13T05:18:48.723Z,75.60
2023-01-13T05:21:35.188Z,75.50
2023-01-13T05:24:24.071Z,75.50
2023-01-13T05:26:54.402Z,75.50
2023-01-13T05:29:23.642Z,75.60
2023-01-13T05:31:52.980Z,75.70
2023-01-13T05:34:21.989Z,75.70
2023-01-13T05:36:51.064Z,75.60
2023-01-13T05:39:21.722Z,75.90
2023-01-13T05:42:08.131Z,75.90
2023-01-13T05:44:37.436Z,75.90
2023-01-13T05:47:06.574Z,76.00
2023-01-13T05:49:35.690Z,76.10
2023-01-13T05:52:05.121Z,76.20
2023-01-13T05:54:35.950Z,76.20
2023-01-13T05:57:05.238Z,76.50
2023-01-13T05:59:34.631Z,76.50
2023-01-13T06:02:03.845Z,76.60
2023-01-13T06:04:33.111Z,76.60
2023-01-13T06:07:02.613Z,76.60
2023-01-13T06:09:32.009Z,76.70
2023-01-13T06:12:02.688Z,76.60
2023-01-13T06:14:40.007Z,76.80
2023-01-13T06:17:09.672Z,77.60
2023-01-13T06:19:38.989Z,76.80
2023-01-13T06:22:14.557Z,76.80
2023-01-13T06:24:44.439Z,77.00
2023-01-13T06:27:15.602Z,76.90
2023-01-13T06:29:45.153Z,77.00
2023-01-13T06:32:18.368Z,76.90
2023-01-13T06:34:51.354Z,77.00
2023-01-13T06:37:25.304Z,76.90
2023-01-13T06:39:58.145Z,76.90
2023-01-13T06:42:48.204Z,77.00
2023-01-13T06:45:17.895Z,77.10
2023-01-13T06:47:47.081Z,77.10
2023-01-13T06:50:16.397Z,77.30
2023-01-13T06:52:45.544Z,77.40
2023-01-13T06:55:14.952Z,77.40
2023-01-13T06:57:51.651Z,77.60
2023-01-13T07:00:21.776Z,77.80
2023-01-13T07:02:51.608Z,77.90
2023-01-13T07:05:21.922Z,78.00
2023-01-13T07:07:51.490Z,78.00
2023-01-13T07:10:23.181Z,77.80
2023-01-13T07:13:11.636Z,77.90
2023-01-13T07:15:41.129Z,77.80
2023-01-13T07:18:10.255Z,77.90
2023-01-13T07:20:39.633Z,78.00
2023-01-13T07:23:09.350Z,77.90
2023-01-13T07:25:38.609Z,78.00
2023-01-13T07:28:08.980Z,78.00
2023-01-13T07:30:39.195Z,78.00
2023-01-13T07:33:08.311Z,78.00
2023-01-13T07:35:38.091Z,77.80
2023-01-13T07:38:08.325Z,78.10
2023-01-13T07:40:37.922Z,78.00
2023-01-13T07:43:29.413Z,78.10
2023-01-13T07:45:59.831Z,78.20
2023-01-13T07:48:29.841Z,78.10
2023-01-13T07:51:02.685Z,78.10
2023-01-13T07:53:31.987Z,78.00
2023-01-13T07:56:02.661Z,78.10
2023-01-13T07:58:35.312Z,78.10
2023-01-13T08:01:09.241Z,78.10
2023-01-13T08:03:38.401Z,78.80
2023-01-13T08:06:08.279Z,78.00
2023-01-13T08:08:37.906Z,77.90
2023-01-13T08:11:09.019Z,77.90
2023-01-13T08:13:39.291Z,78.10
2023-01-13T08:16:10.961Z,78.00
2023-01-13T08:18:40.050Z,78.10
2023-01-13T08:21:11.185Z,78.00
2023-01-13T08:23:41.305Z,78.10
2023-01-13T08:26:12.160Z,78.10
2023-01-13T08:28:42.895Z,78.20
2023-01-13T08:31:16.017Z,78.20
2023-01-13T08:33:45.758Z,78.10
2023-01-13T08:36:14.952Z,78.00
2023-01-13T08:38:44.170Z,77.80
2023-01-13T08:41:15.326Z,77.70
2023-01-13T08:43:45.902Z,77.80
2023-01-13T08:46:15.091Z,77.50
2023-01-13T08:48:44.143Z,77.50
2023-01-13T08:51:13.243Z,77.50
2023-01-13T08:53:42.335Z,77.60
2023-01-13T08:56:13.171Z,77.70
2023-01-13T08:58:42.268Z,77.60
2023-01-13T09:01:23.848Z,77.50
2023-01-13T09:03:53.248Z,77.50
2023-01-13T09:06:22.418Z,77.60
2023-01-13T09:08:52.277Z,77.60
2023-01-13T09:11:46.752Z,77.60
2023-01-13T09:14:19.606Z,78.10
2023-01-13T09:16:51.266Z,77.70
2023-01-13T09:19:20.774Z,77.60
2023-01-13T09:21:50.184Z,77.90
2023-01-13T09:24:19.830Z,78.00
2023-01-13T09:26:49.195Z,78.00
2023-01-13T09:29:18.694Z,78.10
2023-01-13T09:31:48.017Z,78.10
2023-01-13T09:34:37.656Z,78.20
2023-01-13T09:37:08.202Z,78.20
2023-01-13T09:39:38.218Z,77.90
2023-01-13T09:42:36.073Z,77.40
2023-01-13T09:45:11.334Z,76.90
2023-01-13T09:47:47.384Z,76.80
2023-01-13T09:50:26.276Z,76.60
2023-01-13T09:52:55.903Z,76.60
2023-01-13T09:55:30.528Z,76.60
2023-01-13T09:58:00.185Z,76.40
2023-01-13T10:00:37.276Z,77.20
2023-01-13T10:03:24.436Z,76.30
2023-01-13T10:06:04.632Z,75.70
2023-01-13T10:08:36.677Z,75.60
2023-01-13T10:11:34.387Z,75.60
2023-01-13T10:14:05.007Z,75.70
2023-01-13T10:16:43.163Z,75.70
2023-01-13T10:19:18.788Z,75.70
2023-01-13T10:22:09.906Z,75.70
2023-01-13T10:25:03.836Z,75.60
2023-01-13T10:27:35.661Z,75.70
2023-01-13T10:30:21.399Z,75.60
2023-01-13T10:32:55.867Z,75.70
2023-01-13T10:35:49.843Z,75.90
2023-01-13T10:38:22.214Z,76.30
2023-01-13T10:40:53.531Z,76.60
2023-01-13T10:43:23.164Z,77.00
2023-01-13T10:45:58.658Z,77.20
2023-01-13T10:48:36.624Z,77.50
2023-01-13T10:51:27.569Z,77.20
2023-01-13T10:54:01.524Z,76.30
2023-01-13T10:56:32.960Z,75.70
2023-01-13T10:59:16.414Z,75.50
2023-01-13T11:01:59.790Z,75.00
2023-01-13T11:04:32.811Z,74.90
2023-01-13T11:07:03.697Z,74.70
2023-01-13T11:09:34.430Z,74.70
2023-01-13T11:12:04.069Z,74.70
2023-01-13T11:14:40.764Z,75.00
2023-01-13T11:17:35.368Z,75.00
2023-01-13T11:20:18.600Z,74.50
2023-01-13T11:22:49.997Z,75.00
2023-01-13T11:25:24.986Z,75.20
2023-01-13T11:27:58.831Z,75.20
2023-01-13T11:30:35.856Z,75.50
2023-01-13T11:33:21.469Z,77.10
2023-01-13T11:36:03.082Z,77.60
2023-01-13T11:38:35.211Z,77.60
2023-01-13T11:41:14.545Z,76.80
2023-01-13T11:43:52.424Z,74.70
2023-01-13T11:46:25.574Z,73.60
2023-01-13T11:48:57.394Z,72.50
2023-01-13T11:51:37.296Z,73.10
2023-01-13T11:54:22.481Z,72.00
2023-01-13T11:57:15.250Z,71.90
2023-01-13T12:00:10.910Z,70.60
2023-01-13T12:03:18.291Z,71.30
2023-01-13T12:06:04.326Z,70.60
2023-01-13T12:08:48.007Z,70.10
2023-01-13T12:11:23.949Z,69.30
2023-01-13T12:14:13.789Z,68.50
2023-01-13T12:16:48.518Z,66.70
2023-01-13T12:19:25.643Z,65.40
2023-01-13T12:22:10.763Z,64.70
2023-01-13T12:24:46.622Z,62.20
2023-01-13T12:27:22.663Z,61.60
2023-01-13T12:29:58.333Z,61.50
2023-01-13T12:32:35.165Z,61.90
2023-01-13T12:35:27.048Z,61.30
2023-01-13T12:38:00.780Z,61.50
2023-01-13T12:40:48.570Z,62.00
2023-01-13T12:43:37.151Z,62.50
2023-01-13T12:46:36.260Z,63.50
2023-01-13T12:49:19.014Z,63.80
2023-01-13T12:52:15.306Z,64.20
2023-01-13T12:55:05.980Z,64.60
2023-01-13T12:57:37.512Z,65.40
2023-01-13T13:00:22.097Z,65.90
2023-01-13T13:03:33.332Z,66.00
2023-01-13T13:06:17.010Z,66.10
2023-01-13T13:08:58.187Z,66.10
2023-01-13T13:11:57.541Z,66.30
2023-01-13T13:15:03.891Z,66.00
2023-01-13T13:17:43.139Z,66.30
2023-01-13T13:20:53.755Z,67.00
2023-01-13T13:23:44.017Z,67.50
2023-01-13T13:26:21.237Z,68.20
2023-01-13T13:29:00.283Z,68.30
2023-01-13T13:31:38.843Z,68.60
2023-01-13T13:34:16.811Z,68.10
2023-01-13T13:37:03.188Z,68.90
2023-01-13T13:39:53.144Z,68.40
2023-01-13T13:42:52.002Z,68.40
2023-01-13T13:45:41.146Z,68.30
2023-01-13T13:48:25.068Z,68.40
2023-01-13T13:50:58.226Z,68.40
2023-01-13T13:53:31.402Z,68.30
2023-01-13T13:56:05.009Z,68.20
2023-01-13T13:58:36.993Z,68.10
2023-01-13T14:01:07.601Z,68.10
2023-01-13T14:03:40.149Z,68.10
2023-01-13T14:06:24.245Z,68.20
2023-01-13T14:08:53.856Z,68.50
2023-01-13T14:11:31.003Z,68.60
2023-01-13T14:14:05.798Z,68.60
2023-01-13T14:16:36.465Z,68.20
2023-01-13T14:19:05.818Z,68.50
2023-01-13T14:21:34.931Z,68.70
2023-01-13T14:24:14.724Z,68.80
2023-01-13T14:26:51.330Z,68.80
2023-01-13T14:29:23.661Z,68.40
2023-01-13T14:31:54.773Z,68.20
2023-01-13T14:34:33.210Z,67.90
2023-01-13T14:37:03.050Z,67.50
2023-01-13T14:39:38.940Z,67.40
2023-01-13T14:42:14.942Z,68.10
2023-01-13T14:44:46.855Z,67.00
2023-01-13T14:47:23.699Z,67.00
2023-01-13T14:49:59.066Z,67.10
2023-01-13T14:52:29.957Z,67.20
2023-01-13T14:55:23.880Z,67.10
2023-01-13T14:57:54.566Z,67.00
2023-01-13T15:00:28.191Z,66.80
2023-01-13T15:03:07.191Z,66.70
2023-01-13T15:05:39.986Z,66.70
2023-01-13T15:08:40.832Z,66.60
2023-01-13T15:11:24.840Z,66.20
2023-01-13T15:14:01.209Z,66.60
2023-01-13T15:16:33.870Z,66.00
2023-01-13T15:19:04.523Z,65.80
2023-01-13T15:21:33.712Z,66.00
2023-01-13T15:24:03.108Z,65.50
2023-01-13T15:26:35.004Z,65.50
2023-01-13T15:29:06.389Z,65.50
2023-01-13T15:31:35.871Z,65.60
2023-01-13T15:34:04.865Z,65.50
2023-01-13T15:36:36.784Z,65.50
2023-01-13T15:39:06.160Z,65.30
2023-01-13T15:41:52.691Z,65.20
2023-01-13T15:44:40.589Z,65.40
2023-01-13T15:47:11.751Z,66.00
2023-01-13T15:49:43.916Z,66.30
2023-01-13T15:52:21.306Z,66.20
2023-01-13T15:54:50.850Z,66.10
2023-01-13T15:57:24.111Z,66.40
2023-01-13T15:59:57.362Z,66.40
2023-01-13T16:02:26.684Z,66.70
2023-01-13T16:04:55.781Z,67.10
2023-01-13T16:07:26.902Z,67.00
2023-01-13T16:09:56.118Z,67.40
2023-01-13T16:12:25.229Z,66.70
2023-01-13T16:14:55.619Z,66.60
2023-01-13T16:17:30.063Z,67.30
2023-01-13T16:20:00.046Z,67.00
2023-01-13T16:22:29.192Z,66.80
2023-01-13T16:24:58.322Z,66.70
2023-01-13T16:27:27.416Z,66.70
2023-01-13T16:29:57.878Z,67.00
2023-01-13T16:32:26.757Z,67.00
2023-01-13T16:34:56.065Z,67.00
2023-01-13T16:37:26.944Z,67.90
2023-01-13T16:39:56.439Z,67.40
2023-01-13T16:42:25.592Z,67.10
2023-01-13T16:44:54.593Z,67.20
2023-01-13T16:47:25.141Z,67.00
2023-01-13T16:49:54.306Z,67.20
2023-01-13T16:52:23.183Z,67.70
2023-01-13T16:54:52.368Z,67.80
2023-01-13T16:57:21.395Z,68.10
2023-01-13T16:59:51.620Z,68.40
2023-01-13T17:02:21.165Z,68.60
2023-01-13T17:04:51.516Z,68.70
2023-01-13T17:07:20.945Z,69.70
2023-01-13T17:09:50.271Z,68.70
2023-01-13T17:12:19.476Z,68.90
2023-01-13T17:14:48.492Z,69.00
2023-01-13T17:17:23.149Z,68.90
2023-01-13T17:19:53.995Z,69.20
2023-01-13T17:22:23.675Z,69.00
2023-01-13T17:24:52.912Z,69.00
2023-01-13T17:27:23.087Z,68.90
2023-01-13T17:29:52.124Z,68.60
2023-01-13T17:32:22.964Z,68.50
2023-01-13T17:34:53.967Z,68.70
2023-01-13T17:37:22.814Z,68.70
2023-01-13T17:39:53.521Z,68.70
2023-01-13T17:42:24.891Z,68.60
2023-01-13T17:44:54.057Z,68.80
2023-01-13T17:47:23.015Z,69.00
2023-01-13T17:49:54.269Z,69.20
2023-01-13T17:52:23.321Z,69.30
2023-01-13T17:54:52.758Z,69.50
2023-01-13T17:57:21.913Z,69.50
2023-01-13T17:59:50.889Z,69.40
2023-01-13T18:02:20.157Z,69.50
2023-01-13T18:04:49.303Z,70.20
2023-01-13T18:07:19.555Z,69.50
2023-01-13T18:09:48.562Z,69.40
2023-01-13T18:12:18.225Z,69.30
2023-01-13T18:14:47.084Z,69.60
2023-01-13T18:17:16.984Z,69.50
2023-01-13T18:20:03.765Z,69.40
2023-01-13T18:22:51.418Z,69.40
2023-01-13T18:25:38.251Z,69.20
2023-01-13T18:28:07.537Z,69.40
2023-01-13T18:30:36.678Z,69.80
2023-01-13T18:33:05.800Z,69.80
2023-01-13T18:35:34.816Z,69.60
2023-01-13T18:38:05.330Z,69.70
2023-01-13T18:40:34.295Z,69.10
2023-01-13T18:43:02.384Z,69.40
2023-01-13T18:45:33.273Z,70.00
2023-01-13T18:48:04.644Z,68.90
2023-01-13T18:50:35.564Z,68.60
2023-01-13T18:53:06.043Z,68.60
2023-01-13T18:55:35.168Z,68.70
2023-01-13T18:58:04.407Z,68.80
2023-01-13T19:00:37.062Z,68.80
2023-01-13T19:05:37.981Z,68.60
2023-01-13T19:08:08.664Z,68.70
2023-01-13T19:10:38.576Z,68.60
2023-01-13T19:13:07.998Z,69.00
2023-01-13T19:15:38.102Z,68.80
2023-01-13T19:18:07.323Z,69.00
2023-01-13T19:20:36.374Z,69.10
2023-01-13T19:23:05.538Z,68.90
2023-01-13T19:25:38.079Z,68.80
2023-01-13T19:28:07.264Z,68.80
2023-01-13T19:30:36.284Z,68.80
2023-01-13T19:33:05.539Z,69.10
2023-01-13T19:35:34.551Z,69.20
2023-01-13T19:38:03.664Z,69.10
2023-01-13T19:40:32.878Z,68.90
2023-01-13T19:43:20.710Z,69.10
2023-01-13T19:45:52.103Z,68.90
2023-01-13T19:48:21.391Z,68.80
2023-01-13T19:50:50.383Z,68.60
2023-01-13T19:53:19.434Z,68.80
2023-01-13T19:55:49.586Z,68.70
2023-01-13T19:58:20.154Z,69.50
2023-01-13T20:00:49.139Z,69.00
2023-01-13T20:03:20.569Z,68.50
2023-01-13T20:05:50.035Z,69.00
2023-01-13T20:08:20.148Z,68.40
2023-01-13T20:10:50.231Z,68.40
2023-01-13T20:13:20.751Z,68.40
2023-01-13T20:15:49.860Z,68.50
2023-01-13T20:18:18.888Z,68.20
2023-01-13T20:20:48.121Z,68.20
2023-01-13T20:23:17.351Z,68.20
2023-01-13T20:25:46.374Z,68.40
2023-01-13T20:28:15.481Z,68.20
2023-01-13T20:30:46.344Z,68.40
2023-01-13T20:33:15.422Z,68.20
2023-01-13T20:35:45.393Z,68.10
2023-01-13T20:38:16.148Z,68.10
2023-01-13T20:40:45.248Z,68.10
2023-01-13T20:43:13.373Z,68.30
2023-01-13T20:45:42.849Z,68.50
2023-01-13T20:48:13.437Z,68.30
2023-01-13T20:50:42.627Z,68.30
2023-01-13T20:53:11.590Z,67.90
2023-01-13T20:55:40.960Z,68.00
2023-01-13T20:58:10.001Z,68.00
2023-01-13T21:00:39.043Z,67.90
2023-01-13T21:03:08.160Z,67.90
2023-01-13T21:05:38.700Z,68.40
2023-01-13T21:08:07.998Z,68.10
2023-01-13T21:10:37.081Z,68.20
2023-01-13T21:13:24.253Z,67.90
2023-01-13T21:15:55.296Z,68.30
2023-01-13T21:18:41.583Z,68.30
2023-01-13T21:21:14.864Z,68.40
2023-01-13T21:23:47.235Z,68.30
2023-01-13T21:26:17.092Z,68.60
2023-01-13T21:28:46.090Z,69.50
2023-01-13T21:31:16.150Z,68.70
2023-01-13T21:33:47.677Z,68.60
2023-01-13T21:36:18.047Z,68.50
2023-01-13T21:38:51.936Z,68.40
2023-01-13T21:41:42.190Z,68.10
2023-01-13T21:44:33.345Z,68.00
2023-01-13T21:47:20.489Z,67.90
2023-01-13T21:49:49.805Z,67.80
2023-01-13T21:52:20.442Z,67.80
2023-01-13T21:55:06.717Z,68.10
2023-01-13T21:57:35.833Z,68.10
2023-01-13T22:00:06.507Z,67.90
2023-01-13T22:02:36.456Z,67.60
2023-01-13T22:05:08.770Z,67.50
2023-01-13T22:07:40.955Z,67.60
2023-01-13T22:10:11.760Z,67.40
2023-01-13T22:12:40.872Z,67.40
2023-01-13T22:15:12.503Z,67.40
2023-01-13T22:17:42.390Z,67.60
2023-01-13T22:20:13.572Z,67.80
2023-01-13T22:22:44.139Z,67.70
2023-01-13T22:25:16.195Z,67.80
2023-01-13T22:27:45.763Z,67.60
2023-01-13T22:30:17.732Z,67.70
2023-01-13T22:32:47.332Z,68.00
2023-01-13T22:35:17.481Z,67.70
2023-01-13T22:37:48.275Z,68.10
2023-01-13T22:40:17.575Z,68.20
2023-01-13T22:42:46.591Z,68.00
2023-01-13T22:45:16.172Z,67.70
2023-01-13T22:47:45.253Z,67.70
2023-01-13T22:50:17.507Z,68.60
2023-01-13T22:52:48.111Z,67.80
2023-01-13T22:55:17.616Z,67.80
2023-01-13T22:57:48.393Z,67.80
2023-01-13T23:00:19.696Z,67.60
2023-01-13T23:02:48.670Z,67.40
2023-01-13T23:05:17.931Z,67.40
2023-01-13T23:07:48.252Z,67.80
2023-01-13T23:10:18.103Z,67.70
2023-01-13T23:12:48.792Z,67.60
2023-01-13T23:15:17.908Z,67.40
2023-01-13T23:17:49.933Z,67.40
2023-01-13T23:20:19.695Z,67.30
2023-01-13T23:22:54.997Z,67.10
2023-01-13T23:25:27.213Z,66.90
2023-01-13T23:28:03.605Z,67.20
2023-01-13T23:30:32.830Z,67.10
2023-01-13T23:33:11.859Z,67.40
2023-01-13T23:35:44.294Z,67.30
2023-01-13T23:38:17.648Z,67.10
2023-01-13T23:40:46.947Z,67.50
2023-01-13T23:43:16.767Z,67.50
2023-01-13T23:45:46.930Z,67.70
2023-01-13T23:48:16.856Z,67.50
2023-01-13T23:50:56.906Z,67.80
2023-01-13T23:53:33.483Z,67.80
2023-01-13T23:56:04.192Z,67.70
2023-01-13T23:58:33.675Z,67.40
